Hlavní strana
METAR-TAF:

METAR-TAF

Letiště :

Kuvajt, Kuvajt

zeměpisná šířka: 29-13N, zeměpisná délka: 047-59E, výška: 55 m

Aktuální stav počasí

Zpráva byla vytvořena před 21 minutami, v 08:00 UTC
Severní vítr 11 kt
Teplota 16°C
Vlhkost vzduchu 68%
Tlak 1018 hPa
Viditelnost: 8000 m

METAR: OKBK 080800Z 35011KT 8000 NSC 16/10 Q1018 NOSIG

Čas: 11:21 (08:21 UTC)

Předpověď počasí

Zpráva byla vytvořena před 2 hodinami a 59 minutami, v 05:22 UTC
Předpověď platná od 08 v 06 UTC do 09 v 12 UTC
Severoseverozápadní vítr 12 kt
Viditelnost: 7000 m
Dočasný
od 08 v 06 UTC do 08 v 09 UTC
vítr z různých směrů 3 kt
Viditelnost: 2000 m

TAF: OKBK 080522Z 0806/0912 34012KT 7000 NSC TEMPO 0806/0809 VRB03KT 2000 BR/HZ

Stav a předpovědi počasí z více než 4 000 letišť (zprávy METAR a TAF).

Červené a žluté tečky na mapě představují dostupné meteorologické stanice.

Když kurzor umístíte na tečku, zobrazí se název stanice.

Pak kliknutím zobrazíte stav a předpověď počasí.

Chcete-li změnit mapu, kliknutím na zelené tlačítko se znaménkem +mapu přiblížíte, kliknutím na zelené tlačítko se znaménkem – mapu oddálíte a kliknutím na zelené šipky přejdete na sousední mapy.


METAR-TAF: